sensor_id;sensor_type;location;lat;lon;timestamp;P1;durP1;ratioP1;P2;durP2;ratioP2
71484;SDS011;59300;52.074;4.758;2022-12-07T00:01:54;21.17;;;6.25;;
71484;SDS011;59300;52.074;4.758;2022-12-07T00:04:56;15.95;;;6.20;;
71484;SDS011;59300;52.074;4.758;2022-12-07T00:07:57;26.05;;;6.68;;
71484;SDS011;59300;52.074;4.758;2022-12-07T00:14:06;12.35;;;5.13;;
71484;SDS011;59300;52.074;4.758;2022-12-07T00:17:10;19.58;;;5.25;;
71484;SDS011;59300;52.074;4.758;2022-12-07T00:20:12;10.10;;;5.03;;
71484;SDS011;59300;52.074;4.758;2022-12-07T00:23:13;13.65;;;5.55;;
71484;SDS011;59300;52.074;4.758;2022-12-07T00:26:16;19.83;;;5.68;;
71484;SDS011;59300;52.074;4.758;2022-12-07T00:29:21;14.82;;;5.40;;
71484;SDS011;59300;52.074;4.758;2022-12-07T00:32:23;11.02;;;4.13;;
71484;SDS011;59300;52.074;4.758;2022-12-07T00:35:24;14.27;;;4.22;;
71484;SDS011;59300;52.074;4.758;2022-12-07T00:38:27;10.77;;;3.80;;
71484;SDS011;59300;52.074;4.758;2022-12-07T00:41:32;18.17;;;4.10;;
71484;SDS011;59300;52.074;4.758;2022-12-07T00:44:34;18.48;;;3.78;;
71484;SDS011;59300;52.074;4.758;2022-12-07T00:47:35;16.58;;;4.32;;
71484;SDS011;59300;52.074;4.758;2022-12-07T00:50:37;15.98;;;4.22;;
71484;SDS011;59300;52.074;4.758;2022-12-07T00:53:38;18.48;;;4.38;;
71484;SDS011;59300;52.074;4.758;2022-12-07T00:56:42;13.02;;;4.38;;
71484;SDS011;59300;52.074;4.758;2022-12-07T00:59:43;11.18;;;3.97;;
71484;SDS011;59300;52.074;4.758;2022-12-07T01:02:45;14.35;;;3.70;;
71484;SDS011;59300;52.074;4.758;2022-12-07T01:05:51;20.85;;;4.50;;
71484;SDS011;59300;52.074;4.758;2022-12-07T01:08:54;13.70;;;3.90;;
71484;SDS011;59300;52.074;4.758;2022-12-07T01:11:56;14.93;;;3.67;;
71484;SDS011;59300;52.074;4.758;2022-12-07T01:14:57;15.40;;;3.42;;
71484;SDS011;59300;52.074;4.758;2022-12-07T01:17:59;11.80;;;3.80;;
71484;SDS011;59300;52.074;4.758;2022-12-07T01:21:01;17.20;;;4.00;;
71484;SDS011;59300;52.074;4.758;2022-12-07T01:24:04;9.23;;;2.78;;
71484;SDS011;59300;52.074;4.758;2022-12-07T01:30:10;11.70;;;2.97;;
71484;SDS011;59300;52.074;4.758;2022-12-07T01:33:12;14.95;;;3.05;;
71484;SDS011;59300;52.074;4.758;2022-12-07T01:36:20;13.43;;;2.65;;
71484;SDS011;59300;52.074;4.758;2022-12-07T01:39:24;12.25;;;2.28;;
71484;SDS011;59300;52.074;4.758;2022-12-07T01:42:26;11.63;;;2.22;;
71484;SDS011;59300;52.074;4.758;2022-12-07T01:48:35;20.83;;;2.40;;
71484;SDS011;59300;52.074;4.758;2022-12-07T01:51:41;14.38;;;2.13;;
71484;SDS011;59300;52.074;4.758;2022-12-07T01:54:45;7.32;;;1.80;;
71484;SDS011;59300;52.074;4.758;2022-12-07T01:57:50;12.70;;;2.05;;
71484;SDS011;59300;52.074;4.758;2022-12-07T02:00:54;11.65;;;1.90;;
71484;SDS011;59300;52.074;4.758;2022-12-07T02:03:56;13.63;;;1.58;;
71484;SDS011;59300;52.074;4.758;2022-12-07T02:06:59;13.05;;;1.40;;
71484;SDS011;59300;52.074;4.758;2022-12-07T02:10:20;10.85;;;1.50;;
71484;SDS011;59300;52.074;4.758;2022-12-07T02:13:34;9.02;;;1.63;;
71484;SDS011;59300;52.074;4.758;2022-12-07T02:29:29;5.60;;;1.47;;
71484;SDS011;59300;52.074;4.758;2022-12-07T02:36:35;6.95;;;1.67;;
71484;SDS011;59300;52.074;4.758;2022-12-07T02:39:42;6.95;;;1.42;;
71484;SDS011;59300;52.074;4.758;2022-12-07T02:42:50;5.22;;;1.10;;
71484;SDS011;59300;52.074;4.758;2022-12-07T02:46:01;4.30;;;1.02;;
71484;SDS011;59300;52.074;4.758;2022-12-07T02:49:07;4.85;;;1.38;;
71484;SDS011;59300;52.074;4.758;2022-12-07T02:52:09;2.25;;;1.13;;
71484;SDS011;59300;52.074;4.758;2022-12-07T02:55:11;6.97;;;1.25;;
71484;SDS011;59300;52.074;4.758;2022-12-07T02:58:20;2.65;;;0.95;;
71484;SDS011;59300;52.074;4.758;2022-12-07T03:01:37;6.80;;;1.10;;
71484;SDS011;59300;52.074;4.758;2022-12-07T03:14:54;10.80;;;1.30;;
71484;SDS011;59300;52.074;4.758;2022-12-07T03:18:02;9.02;;;1.92;;
71484;SDS011;59300;52.074;4.758;2022-12-07T03:21:08;6.50;;;1.48;;
71484;SDS011;59300;52.074;4.758;2022-12-07T03:24:15;10.55;;;1.27;;
71484;SDS011;59300;52.074;4.758;2022-12-07T03:27:22;3.63;;;1.20;;
71484;SDS011;59300;52.074;4.758;2022-12-07T03:34:06;4.45;;;1.15;;
71484;SDS011;59300;52.074;4.758;2022-12-07T03:37:17;15.10;;;1.65;;
71484;SDS011;59300;52.074;4.758;2022-12-07T03:40:39;16.88;;;1.60;;
71484;SDS011;59300;52.074;4.758;2022-12-07T03:43:45;13.73;;;1.52;;
71484;SDS011;59300;52.074;4.758;2022-12-07T03:46:53;12.65;;;1.73;;
71484;SDS011;59300;52.074;4.758;2022-12-07T03:53:12;5.68;;;1.40;;
71484;SDS011;59300;52.074;4.758;2022-12-07T03:56:19;9.13;;;1.00;;
71484;SDS011;59300;52.074;4.758;2022-12-07T03:59:23;11.38;;;1.67;;
71484;SDS011;59300;52.074;4.758;2022-12-07T04:02:26;5.65;;;0.95;;
71484;SDS011;59300;52.074;4.758;2022-12-07T04:05:29;2.65;;;0.75;;
71484;SDS011;59300;52.074;4.758;2022-12-07T04:08:31;4.60;;;1.40;;
71484;SDS011;59300;52.074;4.758;2022-12-07T04:11:32;5.88;;;0.93;;
71484;SDS011;59300;52.074;4.758;2022-12-07T04:14:34;5.85;;;0.80;;
71484;SDS011;59300;52.074;4.758;2022-12-07T04:17:35;15.50;;;1.63;;
71484;SDS011;59300;52.074;4.758;2022-12-07T04:20:37;9.75;;;1.20;;
71484;SDS011;59300;52.074;4.758;2022-12-07T04:23:38;9.15;;;1.25;;
71484;SDS011;59300;52.074;4.758;2022-12-07T04:26:40;10.10;;;1.50;;
71484;SDS011;59300;52.074;4.758;2022-12-07T04:29:42;6.03;;;1.20;;
71484;SDS011;59300;52.074;4.758;2022-12-07T04:32:44;16.25;;;1.23;;
71484;SDS011;59300;52.074;4.758;2022-12-07T04:35:45;9.40;;;1.15;;
71484;SDS011;59300;52.074;4.758;2022-12-07T04:38:47;10.98;;;1.70;;
71484;SDS011;59300;52.074;4.758;2022-12-07T04:41:48;10.18;;;1.30;;
71484;SDS011;59300;52.074;4.758;2022-12-07T04:44:50;9.05;;;1.20;;
71484;SDS011;59300;52.074;4.758;2022-12-07T04:47:52;7.30;;;1.27;;
71484;SDS011;59300;52.074;4.758;2022-12-07T04:50:53;7.57;;;1.00;;
71484;SDS011;59300;52.074;4.758;2022-12-07T04:53:55;12.98;;;0.98;;
71484;SDS011;59300;52.074;4.758;2022-12-07T04:56:57;4.88;;;0.80;;
71484;SDS011;59300;52.074;4.758;2022-12-07T04:59:59;5.28;;;0.77;;
71484;SDS011;59300;52.074;4.758;2022-12-07T05:03:01;9.73;;;1.13;;
71484;SDS011;59300;52.074;4.758;2022-12-07T05:06:03;4.95;;;1.52;;
71484;SDS011;59300;52.074;4.758;2022-12-07T05:09:12;6.10;;;1.20;;
71484;SDS011;59300;52.074;4.758;2022-12-07T05:12:13;8.73;;;1.42;;
71484;SDS011;59300;52.074;4.758;2022-12-07T05:15:15;8.75;;;1.08;;
71484;SDS011;59300;52.074;4.758;2022-12-07T05:18:17;4.28;;;1.27;;
71484;SDS011;59300;52.074;4.758;2022-12-07T05:21:19;3.15;;;0.98;;
71484;SDS011;59300;52.074;4.758;2022-12-07T05:24:20;7.22;;;1.30;;
71484;SDS011;59300;52.074;4.758;2022-12-07T05:27:22;5.18;;;1.02;;
71484;SDS011;59300;52.074;4.758;2022-12-07T05:30:24;5.28;;;1.10;;
71484;SDS011;59300;52.074;4.758;2022-12-07T05:33:26;4.78;;;1.27;;
71484;SDS011;59300;52.074;4.758;2022-12-07T05:36:28;5.57;;;1.30;;
71484;SDS011;59300;52.074;4.758;2022-12-07T05:39:29;7.40;;;1.75;;
71484;SDS011;59300;52.074;4.758;2022-12-07T05:42:31;6.18;;;1.20;;
71484;SDS011;59300;52.074;4.758;2022-12-07T05:45:33;9.40;;;1.30;;
71484;SDS011;59300;52.074;4.758;2022-12-07T05:48:34;7.53;;;1.20;;
71484;SDS011;59300;52.074;4.758;2022-12-07T05:51:35;5.78;;;0.98;;
71484;SDS011;59300;52.074;4.758;2022-12-07T05:54:37;6.95;;;1.23;;
71484;SDS011;59300;52.074;4.758;2022-12-07T05:57:38;7.63;;;1.15;;
71484;SDS011;59300;52.074;4.758;2022-12-07T06:00:40;5.85;;;0.98;;
71484;SDS011;59300;52.074;4.758;2022-12-07T06:03:41;9.13;;;1.38;;
71484;SDS011;59300;52.074;4.758;2022-12-07T06:06:43;6.55;;;1.15;;
71484;SDS011;59300;52.074;4.758;2022-12-07T06:09:47;5.43;;;1.55;;
71484;SDS011;59300;52.074;4.758;2022-12-07T06:12:48;8.13;;;1.27;;
71484;SDS011;59300;52.074;4.758;2022-12-07T06:15:50;3.35;;;0.95;;
71484;SDS011;59300;52.074;4.758;2022-12-07T06:18:51;4.93;;;1.15;;
71484;SDS011;59300;52.074;4.758;2022-12-07T06:21:54;3.45;;;1.38;;
71484;SDS011;59300;52.074;4.758;2022-12-07T06:24:56;5.88;;;1.90;;
71484;SDS011;59300;52.074;4.758;2022-12-07T06:27:57;7.43;;;3.35;;
71484;SDS011;59300;52.074;4.758;2022-12-07T06:30:59;6.75;;;3.47;;
71484;SDS011;59300;52.074;4.758;2022-12-07T06:34:12;7.80;;;1.95;;
71484;SDS011;59300;52.074;4.758;2022-12-07T06:37:16;5.32;;;2.13;;
71484;SDS011;59300;52.074;4.758;2022-12-07T06:40:18;4.82;;;2.45;;
71484;SDS011;59300;52.074;4.758;2022-12-07T06:43:19;12.38;;;2.03;;
71484;SDS011;59300;52.074;4.758;2022-12-07T06:46:21;9.85;;;2.65;;
71484;SDS011;59300;52.074;4.758;2022-12-07T06:49:22;9.00;;;2.13;;
71484;SDS011;59300;52.074;4.758;2022-12-07T06:52:24;9.82;;;3.00;;
71484;SDS011;59300;52.074;4.758;2022-12-07T06:55:25;13.57;;;2.30;;
71484;SDS011;59300;52.074;4.758;2022-12-07T06:58:27;6.50;;;2.25;;
71484;SDS011;59300;52.074;4.758;2022-12-07T07:01:28;7.13;;;1.90;;
71484;SDS011;59300;52.074;4.758;2022-12-07T07:04:30;9.43;;;1.88;;
71484;SDS011;59300;52.074;4.758;2022-12-07T07:07:32;5.63;;;1.60;;
71484;SDS011;59300;52.074;4.758;2022-12-07T07:10:52;4.50;;;1.90;;
71484;SDS011;59300;52.074;4.758;2022-12-07T07:13:53;11.10;;;3.25;;
71484;SDS011;59300;52.074;4.758;2022-12-07T07:16:55;5.55;;;3.17;;
71484;SDS011;59300;52.074;4.758;2022-12-07T07:19:56;7.05;;;3.25;;
71484;SDS011;59300;52.074;4.758;2022-12-07T07:22:58;8.80;;;4.53;;
71484;SDS011;59300;52.074;4.758;2022-12-07T07:25:59;9.18;;;4.85;;
71484;SDS011;59300;52.074;4.758;2022-12-07T07:29:01;13.98;;;6.90;;
71484;SDS011;59300;52.074;4.758;2022-12-07T07:32:03;13.52;;;6.03;;
71484;SDS011;59300;52.074;4.758;2022-12-07T07:38:08;11.27;;;3.60;;
71484;SDS011;59300;52.074;4.758;2022-12-07T07:41:10;9.45;;;2.78;;
71484;SDS011;59300;52.074;4.758;2022-12-07T07:44:11;12.25;;;2.85;;
71484;SDS011;59300;52.074;4.758;2022-12-07T07:47:13;11.70;;;3.20;;
71484;SDS011;59300;52.074;4.758;2022-12-07T07:50:15;13.40;;;3.40;;
71484;SDS011;59300;52.074;4.758;2022-12-07T07:53:17;12.15;;;3.63;;
71484;SDS011;59300;52.074;4.758;2022-12-07T07:56:19;9.98;;;4.63;;
71484;SDS011;59300;52.074;4.758;2022-12-07T07:59:20;12.75;;;3.38;;
71484;SDS011;59300;52.074;4.758;2022-12-07T08:02:22;12.45;;;3.35;;
71484;SDS011;59300;52.074;4.758;2022-12-07T08:05:23;15.20;;;2.90;;
71484;SDS011;59300;52.074;4.758;2022-12-07T08:08:25;8.48;;;3.25;;
71484;SDS011;59300;52.074;4.758;2022-12-07T08:11:26;12.00;;;3.50;;
71484;SDS011;59300;52.074;4.758;2022-12-07T08:14:28;11.15;;;3.80;;
71484;SDS011;59300;52.074;4.758;2022-12-07T08:17:29;9.45;;;3.35;;
71484;SDS011;59300;52.074;4.758;2022-12-07T08:20:31;7.88;;;4.00;;
71484;SDS011;59300;52.074;4.758;2022-12-07T08:23:34;13.73;;;4.30;;
71484;SDS011;59300;52.074;4.758;2022-12-07T08:26:40;17.33;;;4.93;;
71484;SDS011;59300;52.074;4.758;2022-12-07T08:29:41;15.07;;;4.95;;
71484;SDS011;59300;52.074;4.758;2022-12-07T08:32:47;19.08;;;3.35;;
71484;SDS011;59300;52.074;4.758;2022-12-07T08:35:49;10.77;;;2.58;;
71484;SDS011;59300;52.074;4.758;2022-12-07T08:38:50;12.35;;;2.10;;
71484;SDS011;59300;52.074;4.758;2022-12-07T08:42:12;4.05;;;1.55;;
71484;SDS011;59300;52.074;4.758;2022-12-07T08:45:13;6.07;;;1.70;;
71484;SDS011;59300;52.074;4.758;2022-12-07T08:48:16;10.20;;;1.58;;
71484;SDS011;59300;52.074;4.758;2022-12-07T08:51:18;4.28;;;1.50;;
71484;SDS011;59300;52.074;4.758;2022-12-07T08:54:20;7.22;;;2.00;;
71484;SDS011;59300;52.074;4.758;2022-12-07T08:57:22;8.85;;;2.08;;
71484;SDS011;59300;52.074;4.758;2022-12-07T09:00:24;5.72;;;1.80;;
71484;SDS011;59300;52.074;4.758;2022-12-07T09:03:26;5.35;;;1.80;;
71484;SDS011;59300;52.074;4.758;2022-12-07T09:06:28;10.70;;;2.67;;
71484;SDS011;59300;52.074;4.758;2022-12-07T09:09:30;6.50;;;2.42;;
71484;SDS011;59300;52.074;4.758;2022-12-07T09:12:31;7.57;;;2.03;;
71484;SDS011;59300;52.074;4.758;2022-12-07T09:15:33;5.40;;;1.80;;
71484;SDS011;59300;52.074;4.758;2022-12-07T09:18:34;3.25;;;1.83;;
71484;SDS011;59300;52.074;4.758;2022-12-07T09:21:36;7.72;;;2.00;;
71484;SDS011;59300;52.074;4.758;2022-12-07T09:24:37;4.30;;;1.70;;
71484;SDS011;59300;52.074;4.758;2022-12-07T09:27:39;6.35;;;1.40;;
71484;SDS011;59300;52.074;4.758;2022-12-07T09:30:46;1.92;;;1.00;;
71484;SDS011;59300;52.074;4.758;2022-12-07T09:34:09;4.53;;;1.40;;
71484;SDS011;59300;52.074;4.758;2022-12-07T09:37:10;8.10;;;1.42;;
71484;SDS011;59300;52.074;4.758;2022-12-07T09:40:12;5.03;;;1.42;;
71484;SDS011;59300;52.074;4.758;2022-12-07T09:43:16;5.30;;;1.40;;
71484;SDS011;59300;52.074;4.758;2022-12-07T09:46:20;2.47;;;1.38;;
71484;SDS011;59300;52.074;4.758;2022-12-07T09:49:23;3.00;;;1.33;;
71484;SDS011;59300;52.074;4.758;2022-12-07T09:52:26;6.57;;;1.83;;
71484;SDS011;59300;52.074;4.758;2022-12-07T09:55:37;5.28;;;1.55;;
71484;SDS011;59300;52.074;4.758;2022-12-07T09:58:39;6.72;;;1.80;;
71484;SDS011;59300;52.074;4.758;2022-12-07T10:01:41;5.55;;;1.52;;
71484;SDS011;59300;52.074;4.758;2022-12-07T10:04:43;4.07;;;1.25;;
71484;SDS011;59300;52.074;4.758;2022-12-07T10:07:46;6.70;;;1.30;;
71484;SDS011;59300;52.074;4.758;2022-12-07T10:10:49;5.90;;;1.05;;
71484;SDS011;59300;52.074;4.758;2022-12-07T10:13:56;4.63;;;1.33;;
71484;SDS011;59300;52.074;4.758;2022-12-07T10:20:33;3.90;;;1.30;;
71484;SDS011;59300;52.074;4.758;2022-12-07T10:23:35;3.40;;;1.02;;
71484;SDS011;59300;52.074;4.758;2022-12-07T10:26:38;5.68;;;1.52;;
71484;SDS011;59300;52.074;4.758;2022-12-07T10:29:48;4.15;;;1.20;;
71484;SDS011;59300;52.074;4.758;2022-12-07T10:32:52;5.20;;;1.55;;
71484;SDS011;59300;52.074;4.758;2022-12-07T10:35:53;5.15;;;1.20;;
71484;SDS011;59300;52.074;4.758;2022-12-07T10:39:29;6.97;;;2.10;;
71484;SDS011;59300;52.074;4.758;2022-12-07T10:42:26;5.35;;;1.73;;
71484;SDS011;59300;52.074;4.758;2022-12-07T10:45:32;4.90;;;1.50;;
71484;SDS011;59300;52.074;4.758;2022-12-07T10:52:42;4.53;;;1.40;;
71484;SDS011;59300;52.074;4.758;2022-12-07T10:56:09;6.63;;;1.40;;
71484;SDS011;59300;52.074;4.758;2022-12-07T10:59:35;9.30;;;1.40;;
71484;SDS011;59300;52.074;4.758;2022-12-07T11:06:23;5.75;;;1.30;;
71484;SDS011;59300;52.074;4.758;2022-12-07T11:16:48;9.07;;;2.00;;
71484;SDS011;59300;52.074;4.758;2022-12-07T11:26:40;6.85;;;1.65;;
71484;SDS011;59300;52.074;4.758;2022-12-07T11:33:12;8.40;;;1.58;;
71484;SDS011;59300;52.074;4.758;2022-12-07T11:36:37;9.55;;;1.95;;
71484;SDS011;59300;52.074;4.758;2022-12-07T11:39:44;6.97;;;1.58;;
71484;SDS011;59300;52.074;4.758;2022-12-07T11:46:30;5.32;;;1.95;;
71484;SDS011;59300;52.074;4.758;2022-12-07T11:49:51;9.40;;;1.92;;
71484;SDS011;59300;52.074;4.758;2022-12-07T11:52:58;6.32;;;1.73;;
71484;SDS011;59300;52.074;4.758;2022-12-07T11:59:17;8.80;;;1.90;;
71484;SDS011;59300;52.074;4.758;2022-12-07T12:02:37;6.43;;;1.70;;
71484;SDS011;59300;52.074;4.758;2022-12-07T12:05:48;6.15;;;1.77;;
71484;SDS011;59300;52.074;4.758;2022-12-07T12:09:03;5.97;;;1.80;;
71484;SDS011;59300;52.074;4.758;2022-12-07T12:12:45;3.03;;;0.80;;
71484;SDS011;59300;52.074;4.758;2022-12-07T12:16:38;4.28;;;0.93;;
71484;SDS011;59300;52.074;4.758;2022-12-07T12:20:20;2.25;;;0.80;;
71484;SDS011;59300;52.074;4.758;2022-12-07T12:23:39;5.53;;;0.97;;
71484;SDS011;59300;52.074;4.758;2022-12-07T12:26:55;4.10;;;1.10;;
71484;SDS011;59300;52.074;4.758;2022-12-07T12:30:23;3.70;;;1.27;;
71484;SDS011;59300;52.074;4.758;2022-12-07T12:33:30;4.05;;;1.10;;
71484;SDS011;59300;52.074;4.758;2022-12-07T12:39:35;15.90;;;8.25;;
71484;SDS011;59300;52.074;4.758;2022-12-07T12:49:33;17.27;;;6.03;;
71484;SDS011;59300;52.074;4.758;2022-12-07T12:55:56;14.07;;;7.05;;
71484;SDS011;59300;52.074;4.758;2022-12-07T13:02:30;14.25;;;5.45;;
71484;SDS011;59300;52.074;4.758;2022-12-07T13:05:35;8.52;;;2.42;;
71484;SDS011;59300;52.074;4.758;2022-12-07T13:08:37;3.45;;;1.73;;
71484;SDS011;59300;52.074;4.758;2022-12-07T13:11:43;6.47;;;2.03;;
71484;SDS011;59300;52.074;4.758;2022-12-07T13:14:53;2.45;;;1.00;;
71484;SDS011;59300;52.074;4.758;2022-12-07T13:17:57;6.00;;;1.42;;
71484;SDS011;59300;52.074;4.758;2022-12-07T13:24:07;4.25;;;0.90;;
71484;SDS011;59300;52.074;4.758;2022-12-07T13:27:13;2.05;;;0.90;;
71484;SDS011;59300;52.074;4.758;2022-12-07T13:30:16;4.75;;;0.90;;
71484;SDS011;59300;52.074;4.758;2022-12-07T13:33:19;5.43;;;0.93;;
71484;SDS011;59300;52.074;4.758;2022-12-07T13:39:23;0.95;;;0.85;;
71484;SDS011;59300;52.074;4.758;2022-12-07T13:42:30;2.08;;;0.50;;
71484;SDS011;59300;52.074;4.758;2022-12-07T13:45:34;0.85;;;0.50;;
71484;SDS011;59300;52.074;4.758;2022-12-07T13:48:43;2.13;;;0.63;;
71484;SDS011;59300;52.074;4.758;2022-12-07T13:51:47;3.03;;;1.17;;
71484;SDS011;59300;52.074;4.758;2022-12-07T13:54:56;2.88;;;1.05;;
71484;SDS011;59300;52.074;4.758;2022-12-07T13:58:00;1.70;;;1.08;;
71484;SDS011;59300;52.074;4.758;2022-12-07T14:01:02;12.70;;;5.82;;
71484;SDS011;59300;52.074;4.758;2022-12-07T14:04:19;1.92;;;1.30;;
71484;SDS011;59300;52.074;4.758;2022-12-07T14:07:28;5.30;;;1.52;;
71484;SDS011;59300;52.074;4.758;2022-12-07T14:10:40;3.25;;;1.40;;
71484;SDS011;59300;52.074;4.758;2022-12-07T14:13:44;10.23;;;2.83;;
71484;SDS011;59300;52.074;4.758;2022-12-07T14:17:11;8.85;;;3.05;;
71484;SDS011;59300;52.074;4.758;2022-12-07T14:20:34;5.88;;;2.10;;
71484;SDS011;59300;52.074;4.758;2022-12-07T14:23:36;4.68;;;2.20;;
71484;SDS011;59300;52.074;4.758;2022-12-07T14:26:39;7.38;;;2.45;;
71484;SDS011;59300;52.074;4.758;2022-12-07T14:29:41;4.80;;;2.30;;
71484;SDS011;59300;52.074;4.758;2022-12-07T14:32:42;10.50;;;4.65;;
71484;SDS011;59300;52.074;4.758;2022-12-07T14:35:44;7.93;;;1.80;;
71484;SDS011;59300;52.074;4.758;2022-12-07T14:38:45;4.78;;;1.20;;
71484;SDS011;59300;52.074;4.758;2022-12-07T14:41:47;4.25;;;3.08;;
71484;SDS011;59300;52.074;4.758;2022-12-07T14:44:48;6.70;;;2.33;;
71484;SDS011;59300;52.074;4.758;2022-12-07T14:47:50;7.82;;;2.28;;
71484;SDS011;59300;52.074;4.758;2022-12-07T14:51:12;6.47;;;2.65;;
71484;SDS011;59300;52.074;4.758;2022-12-07T14:54:34;6.70;;;2.05;;
71484;SDS011;59300;52.074;4.758;2022-12-07T14:57:35;10.85;;;3.25;;
71484;SDS011;59300;52.074;4.758;2022-12-07T15:00:37;7.43;;;2.97;;
71484;SDS011;59300;52.074;4.758;2022-12-07T15:03:38;7.70;;;3.38;;
71484;SDS011;59300;52.074;4.758;2022-12-07T15:06:40;8.45;;;2.08;;
71484;SDS011;59300;52.074;4.758;2022-12-07T15:09:41;7.07;;;2.38;;
71484;SDS011;59300;52.074;4.758;2022-12-07T15:12:43;7.85;;;1.98;;
71484;SDS011;59300;52.074;4.758;2022-12-07T15:15:45;4.63;;;2.10;;
71484;SDS011;59300;52.074;4.758;2022-12-07T15:18:47;9.63;;;2.75;;
71484;SDS011;59300;52.074;4.758;2022-12-07T15:22:09;6.28;;;3.15;;
71484;SDS011;59300;52.074;4.758;2022-12-07T15:25:13;11.70;;;5.07;;
71484;SDS011;59300;52.074;4.758;2022-12-07T15:28:15;10.75;;;7.60;;
71484;SDS011;59300;52.074;4.758;2022-12-07T15:31:17;10.20;;;2.97;;
71484;SDS011;59300;52.074;4.758;2022-12-07T15:34:38;7.13;;;2.72;;
71484;SDS011;59300;52.074;4.758;2022-12-07T15:37:41;5.43;;;2.70;;
71484;SDS011;59300;52.074;4.758;2022-12-07T15:40:42;5.03;;;2.70;;
71484;SDS011;59300;52.074;4.758;2022-12-07T15:43:48;9.75;;;2.50;;
71484;SDS011;59300;52.074;4.758;2022-12-07T15:46:49;7.28;;;3.00;;
71484;SDS011;59300;52.074;4.758;2022-12-07T15:49:51;7.40;;;2.88;;
71484;SDS011;59300;52.074;4.758;2022-12-07T15:52:52;4.80;;;3.13;;
71484;SDS011;59300;52.074;4.758;2022-12-07T15:55:53;2.70;;;2.22;;
71484;SDS011;59300;52.074;4.758;2022-12-07T15:58:56;1.60;;;1.23;;
71484;SDS011;59300;52.074;4.758;2022-12-07T16:01:57;3.33;;;1.40;;
71484;SDS011;59300;52.074;4.758;2022-12-07T16:04:59;11.45;;;5.97;;
71484;SDS011;59300;52.074;4.758;2022-12-07T16:08:01;10.48;;;7.93;;
71484;SDS011;59300;52.074;4.758;2022-12-07T16:11:06;10.68;;;7.88;;
71484;SDS011;59300;52.074;4.758;2022-12-07T16:14:08;21.85;;;14.15;;
71484;SDS011;59300;52.074;4.758;2022-12-07T16:17:09;13.07;;;9.18;;
71484;SDS011;59300;52.074;4.758;2022-12-07T16:20:11;14.02;;;8.43;;
71484;SDS011;59300;52.074;4.758;2022-12-07T16:23:12;14.30;;;7.85;;
71484;SDS011;59300;52.074;4.758;2022-12-07T16:26:15;14.82;;;7.90;;
71484;SDS011;59300;52.074;4.758;2022-12-07T16:29:19;14.60;;;7.50;;
71484;SDS011;59300;52.074;4.758;2022-12-07T16:32:21;12.20;;;6.53;;
71484;SDS011;59300;52.074;4.758;2022-12-07T16:35:23;12.73;;;5.40;;
71484;SDS011;59300;52.074;4.758;2022-12-07T16:38:24;13.98;;;5.88;;
71484;SDS011;59300;52.074;4.758;2022-12-07T16:41:26;10.27;;;6.35;;
71484;SDS011;59300;52.074;4.758;2022-12-07T16:44:28;12.15;;;5.97;;
71484;SDS011;59300;52.074;4.758;2022-12-07T16:47:29;8.40;;;4.78;;
71484;SDS011;59300;52.074;4.758;2022-12-07T16:50:31;7.00;;;4.30;;
71484;SDS011;59300;52.074;4.758;2022-12-07T16:53:32;6.82;;;3.70;;
71484;SDS011;59300;52.074;4.758;2022-12-07T16:56:34;6.55;;;3.85;;
71484;SDS011;59300;52.074;4.758;2022-12-07T16:59:35;7.82;;;4.22;;
71484;SDS011;59300;52.074;4.758;2022-12-07T17:02:36;7.50;;;4.25;;
71484;SDS011;59300;52.074;4.758;2022-12-07T17:05:39;10.65;;;4.47;;
71484;SDS011;59300;52.074;4.758;2022-12-07T17:08:41;8.10;;;5.32;;
71484;SDS011;59300;52.074;4.758;2022-12-07T17:11:44;11.00;;;4.32;;
71484;SDS011;59300;52.074;4.758;2022-12-07T17:14:46;12.27;;;5.38;;
71484;SDS011;59300;52.074;4.758;2022-12-07T17:17:52;13.55;;;5.47;;
71484;SDS011;59300;52.074;4.758;2022-12-07T17:20:54;12.15;;;5.68;;
71484;SDS011;59300;52.074;4.758;2022-12-07T17:24:03;9.70;;;5.38;;
71484;SDS011;59300;52.074;4.758;2022-12-07T17:27:06;8.50;;;4.90;;
71484;SDS011;59300;52.074;4.758;2022-12-07T17:30:08;14.38;;;6.03;;
71484;SDS011;59300;52.074;4.758;2022-12-07T17:33:10;14.93;;;7.63;;
71484;SDS011;59300;52.074;4.758;2022-12-07T17:36:12;21.73;;;7.22;;
71484;SDS011;59300;52.074;4.758;2022-12-07T17:39:23;16.80;;;7.97;;
71484;SDS011;59300;52.074;4.758;2022-12-07T17:42:25;12.30;;;5.40;;
71484;SDS011;59300;52.074;4.758;2022-12-07T17:45:27;8.25;;;4.28;;
71484;SDS011;59300;52.074;4.758;2022-12-07T17:48:29;10.35;;;5.80;;
71484;SDS011;59300;52.074;4.758;2022-12-07T17:51:30;17.50;;;10.95;;
71484;SDS011;59300;52.074;4.758;2022-12-07T17:54:32;10.65;;;6.32;;
71484;SDS011;59300;52.074;4.758;2022-12-07T17:57:33;18.65;;;5.43;;
71484;SDS011;59300;52.074;4.758;2022-12-07T18:00:35;18.45;;;9.07;;
71484;SDS011;59300;52.074;4.758;2022-12-07T18:03:37;21.55;;;10.55;;
71484;SDS011;59300;52.074;4.758;2022-12-07T18:06:38;18.50;;;10.55;;
71484;SDS011;59300;52.074;4.758;2022-12-07T18:09:40;19.60;;;10.45;;
71484;SDS011;59300;52.074;4.758;2022-12-07T18:12:42;10.73;;;6.18;;
71484;SDS011;59300;52.074;4.758;2022-12-07T18:15:56;8.82;;;2.67;;
71484;SDS011;59300;52.074;4.758;2022-12-07T18:18:59;5.25;;;2.03;;
71484;SDS011;59300;52.074;4.758;2022-12-07T18:22:04;10.07;;;5.70;;
71484;SDS011;59300;52.074;4.758;2022-12-07T18:25:06;6.75;;;2.50;;
71484;SDS011;59300;52.074;4.758;2022-12-07T18:28:08;7.32;;;3.10;;
71484;SDS011;59300;52.074;4.758;2022-12-07T18:31:09;29.13;;;17.70;;
71484;SDS011;59300;52.074;4.758;2022-12-07T18:34:16;51.22;;;28.52;;
71484;SDS011;59300;52.074;4.758;2022-12-07T18:37:19;52.00;;;30.20;;
71484;SDS011;59300;52.074;4.758;2022-12-07T18:40:20;28.85;;;15.05;;
71484;SDS011;59300;52.074;4.758;2022-12-07T18:43:22;21.20;;;11.90;;
71484;SDS011;59300;52.074;4.758;2022-12-07T18:46:25;20.77;;;14.93;;
71484;SDS011;59300;52.074;4.758;2022-12-07T18:49:27;13.98;;;9.15;;
71484;SDS011;59300;52.074;4.758;2022-12-07T18:52:29;10.73;;;7.25;;
71484;SDS011;59300;52.074;4.758;2022-12-07T18:55:31;12.77;;;5.25;;
71484;SDS011;59300;52.074;4.758;2022-12-07T18:58:33;8.80;;;5.50;;
71484;SDS011;59300;52.074;4.758;2022-12-07T19:01:35;17.67;;;6.25;;
71484;SDS011;59300;52.074;4.758;2022-12-07T19:04:38;15.88;;;7.05;;
71484;SDS011;59300;52.074;4.758;2022-12-07T19:07:47;17.17;;;8.05;;
71484;SDS011;59300;52.074;4.758;2022-12-07T19:10:52;19.42;;;10.55;;
71484;SDS011;59300;52.074;4.758;2022-12-07T19:14:02;16.90;;;8.50;;
71484;SDS011;59300;52.074;4.758;2022-12-07T19:17:06;18.85;;;10.13;;
71484;SDS011;59300;52.074;4.758;2022-12-07T19:20:12;24.63;;;15.10;;
71484;SDS011;59300;52.074;4.758;2022-12-07T19:23:14;18.30;;;11.05;;
71484;SDS011;59300;52.074;4.758;2022-12-07T19:26:18;12.30;;;6.25;;
71484;SDS011;59300;52.074;4.758;2022-12-07T19:29:22;10.00;;;4.82;;
71484;SDS011;59300;52.074;4.758;2022-12-07T19:32:27;11.70;;;3.65;;
71484;SDS011;59300;52.074;4.758;2022-12-07T19:35:28;8.45;;;3.80;;
71484;SDS011;59300;52.074;4.758;2022-12-07T19:38:30;11.60;;;6.40;;
71484;SDS011;59300;52.074;4.758;2022-12-07T19:41:33;16.52;;;6.07;;
71484;SDS011;59300;52.074;4.758;2022-12-07T19:44:34;10.10;;;5.75;;
71484;SDS011;59300;52.074;4.758;2022-12-07T19:47:37;23.58;;;12.15;;
71484;SDS011;59300;52.074;4.758;2022-12-07T19:50:38;20.92;;;10.85;;
71484;SDS011;59300;52.074;4.758;2022-12-07T19:53:40;15.38;;;8.43;;
71484;SDS011;59300;52.074;4.758;2022-12-07T19:56:41;12.40;;;7.13;;
71484;SDS011;59300;52.074;4.758;2022-12-07T19:59:44;37.60;;;15.65;;
71484;SDS011;59300;52.074;4.758;2022-12-07T20:02:49;91.68;;;29.77;;
71484;SDS011;59300;52.074;4.758;2022-12-07T20:05:51;94.40;;;25.60;;
71484;SDS011;59300;52.074;4.758;2022-12-07T20:08:53;29.90;;;11.68;;